Aérodrome :
LOGIN :

S'inscrire | Disclaimer

   EN    FR    IT 

 










Légende :    VFR   VFR Marginal   IFR   IFR Intensif   IFR Très Intensif
Visi : 
Plafond : 
>= 8 km
>= 3000ft
5 à 8 km
1000 à 3000 ft
1500m à 5 km
500 à 1000 ft
800 à 1500m
200 à 500 ft
< 800m
< 200 ft
Symboles :   Orages  Brouillard  Fortes neiges  Fortes précipitations  Vent > 20 kt
SIGMETs :   Divers  Orages  Givrage  Turbulence  Onde Orograph.  Cendres Volcan.







- Altitude de l'aérodrome : 1260 ft
- Code IATA : LDE
- Voir les cartes d'approche


LFBT - Tarbes / Ossun

DERNIER METAR :
  • 222000Z AUTO 24006KT 9999 OVC027 19/15 Q1020 NOSIG

METARs EXPIRÉS :
  • 221930Z AUTO 28005KT 9999 OVC025 19/15 Q1020 NOSIG
  • 221900Z AUTO 28004KT 9999 OVC026 20/15 Q1019 NOSIG
  • 221830Z AUTO 28004KT 9999 OVC028 20/15 Q1019 TEMPO BKN008
  • 221800Z AUTO 32005KT 9999 BKN028 OVC041 20/15 Q1018 TEMPO BKN008
  • 221730Z AUTO 32007KT 9999 BKN034 OVC041 21/15 Q1018 TEMPO BKN008

TAF AMD TAF LFBT
Valide du 22 à 18h jusqu'au 23 à 18h UTC


221831Z 2218/2318 30008KT 9999 BKN040
TEMPO 2303/2310 VRB02KT
Pas de NOTAMs connus pour ce terrain.



MET'MAP, la Météo Aéronautique d'un coup d'oeil ! - Copyright ORBIFLY Décembre 2007 - Disclaimer

ORBIFLY MET'MAP TEAM :

Programmation & Développement : Alexandra Zaïnal
Conception & Développement : Baudouin d'Aumeries
Co-Programmation & Développement : Marc-Olivier Méhu
Soutien technique & logistique : Manuel Goepfert

Contact : metmap@orbifly.com




SOURCES & CREDITS :

   NOAA